sensor_id;sensor_type;location;lat;lon;timestamp;temperature;humidity
5059;DHT22;2548;52.050;11.036;2022-08-01T00:02:04;19.10;99.90
5059;DHT22;2548;52.050;11.036;2022-08-01T00:04:31;19.00;99.90
5059;DHT22;2548;52.050;11.036;2022-08-01T00:06:58;19.00;99.90
5059;DHT22;2548;52.050;11.036;2022-08-01T00:09:26;19.00;99.90
5059;DHT22;2548;52.050;11.036;2022-08-01T00:11:55;19.00;99.90
5059;DHT22;2548;52.050;11.036;2022-08-01T00:14:22;19.10;99.90
5059;DHT22;2548;52.050;11.036;2022-08-01T00:16:49;19.00;99.90
5059;DHT22;2548;52.050;11.036;2022-08-01T00:19:17;19.00;99.90
5059;DHT22;2548;52.050;11.036;2022-08-01T00:21:44;19.00;99.90
5059;DHT22;2548;52.050;11.036;2022-08-01T00:24:11;18.90;99.90
5059;DHT22;2548;52.050;11.036;2022-08-01T00:26:39;18.90;99.90
5059;DHT22;2548;52.050;11.036;2022-08-01T00:29:08;18.90;99.90
5059;DHT22;2548;52.050;11.036;2022-08-01T00:31:35;18.90;99.90
5059;DHT22;2548;52.050;11.036;2022-08-01T00:34:02;18.90;99.90
5059;DHT22;2548;52.050;11.036;2022-08-01T00:36:30;18.90;99.90
5059;DHT22;2548;52.050;11.036;2022-08-01T00:38:57;18.90;99.90
5059;DHT22;2548;52.050;11.036;2022-08-01T00:41:24;18.90;99.90
5059;DHT22;2548;52.050;11.036;2022-08-01T00:43:52;18.90;99.90
5059;DHT22;2548;52.050;11.036;2022-08-01T00:46:21;18.90;99.90
5059;DHT22;2548;52.050;11.036;2022-08-01T00:48:49;18.90;99.90
5059;DHT22;2548;52.050;11.036;2022-08-01T00:51:17;18.90;99.90
5059;DHT22;2548;52.050;11.036;2022-08-01T00:53:44;18.90;99.90
5059;DHT22;2548;52.050;11.036;2022-08-01T00:56:12;19.00;99.90
5059;DHT22;2548;52.050;11.036;2022-08-01T00:58:40;19.00;99.90
5059;DHT22;2548;52.050;11.036;2022-08-01T01:01:08;18.90;99.90
5059;DHT22;2548;52.050;11.036;2022-08-01T01:03:37;18.90;99.90
5059;DHT22;2548;52.050;11.036;2022-08-01T01:06:13;18.90;99.90
5059;DHT22;2548;52.050;11.036;2022-08-01T01:08:46;18.90;99.90
5059;DHT22;2548;52.050;11.036;2022-08-01T01:11:26;18.90;99.90
5059;DHT22;2548;52.050;11.036;2022-08-01T01:13:57;18.90;99.90
5059;DHT22;2548;52.050;11.036;2022-08-01T01:16:27;19.00;99.90
5059;DHT22;2548;52.050;11.036;2022-08-01T01:19:01;19.00;99.90
5059;DHT22;2548;52.050;11.036;2022-08-01T01:22:00;18.90;99.90
5059;DHT22;2548;52.050;11.036;2022-08-01T01:24:39;18.90;99.90
5059;DHT22;2548;52.050;11.036;2022-08-01T01:27:18;18.90;99.90
5059;DHT22;2548;52.050;11.036;2022-08-01T01:29:51;18.90;99.90
5059;DHT22;2548;52.050;11.036;2022-08-01T01:32:24;18.90;99.90
5059;DHT22;2548;52.050;11.036;2022-08-01T01:34:55;18.90;99.90
5059;DHT22;2548;52.050;11.036;2022-08-01T01:37:25;19.00;99.90
5059;DHT22;2548;52.050;11.036;2022-08-01T01:39:54;18.90;99.90
5059;DHT22;2548;52.050;11.036;2022-08-01T01:42:25;18.90;99.90
5059;DHT22;2548;52.050;11.036;2022-08-01T01:44:55;18.90;99.90
5059;DHT22;2548;52.050;11.036;2022-08-01T01:47:24;18.90;99.90
5059;DHT22;2548;52.050;11.036;2022-08-01T01:49:53;18.90;99.90
5059;DHT22;2548;52.050;11.036;2022-08-01T01:52:23;18.80;99.90
5059;DHT22;2548;52.050;11.036;2022-08-01T01:54:52;18.90;99.90
5059;DHT22;2548;52.050;11.036;2022-08-01T01:57:21;18.80;99.90
5059;DHT22;2548;52.050;11.036;2022-08-01T01:59:50;18.90;99.90
5059;DHT22;2548;52.050;11.036;2022-08-01T02:02:20;18.90;99.90
5059;DHT22;2548;52.050;11.036;2022-08-01T02:04:50;19.00;99.90
5059;DHT22;2548;52.050;11.036;2022-08-01T02:07:22;18.90;99.90
5059;DHT22;2548;52.050;11.036;2022-08-01T02:09:51;19.00;99.90
5059;DHT22;2548;52.050;11.036;2022-08-01T02:12:20;19.00;99.90
5059;DHT22;2548;52.050;11.036;2022-08-01T02:14:50;19.00;99.90
5059;DHT22;2548;52.050;11.036;2022-08-01T02:17:22;19.00;99.90
5059;DHT22;2548;52.050;11.036;2022-08-01T02:19:51;19.00;99.90
5059;DHT22;2548;52.050;11.036;2022-08-01T02:22:26;19.00;99.90
5059;DHT22;2548;52.050;11.036;2022-08-01T02:24:59;19.10;99.90
5059;DHT22;2548;52.050;11.036;2022-08-01T02:27:32;19.00;99.90
5059;DHT22;2548;52.050;11.036;2022-08-01T02:30:03;19.00;99.90
5059;DHT22;2548;52.050;11.036;2022-08-01T02:32:37;19.00;99.90
5059;DHT22;2548;52.050;11.036;2022-08-01T02:35:07;19.00;99.90
5059;DHT22;2548;52.050;11.036;2022-08-01T02:37:38;19.00;99.90
5059;DHT22;2548;52.050;11.036;2022-08-01T02:40:08;19.00;99.90
5059;DHT22;2548;52.050;11.036;2022-08-01T02:42:39;19.00;99.90
5059;DHT22;2548;52.050;11.036;2022-08-01T02:45:10;19.00;99.90
5059;DHT22;2548;52.050;11.036;2022-08-01T02:47:42;19.00;99.90
5059;DHT22;2548;52.050;11.036;2022-08-01T02:50:12;19.00;99.90
5059;DHT22;2548;52.050;11.036;2022-08-01T02:52:41;19.00;99.90
5059;DHT22;2548;52.050;11.036;2022-08-01T02:55:11;19.00;99.90
5059;DHT22;2548;52.050;11.036;2022-08-01T02:57:39;19.00;99.90
5059;DHT22;2548;52.050;11.036;2022-08-01T03:00:09;19.00;99.90
5059;DHT22;2548;52.050;11.036;2022-08-01T03:02:37;19.00;99.90
5059;DHT22;2548;52.050;11.036;2022-08-01T03:05:08;19.00;99.90
5059;DHT22;2548;52.050;11.036;2022-08-01T03:07:37;19.00;99.90
5059;DHT22;2548;52.050;11.036;2022-08-01T03:10:06;19.00;99.90
5059;DHT22;2548;52.050;11.036;2022-08-01T03:12:34;19.10;99.90
5059;DHT22;2548;52.050;11.036;2022-08-01T03:15:04;19.00;99.90
5059;DHT22;2548;52.050;11.036;2022-08-01T03:17:34;19.00;99.90
5059;DHT22;2548;52.050;11.036;2022-08-01T03:20:04;19.00;99.90
5059;DHT22;2548;52.050;11.036;2022-08-01T03:22:33;18.90;99.90
5059;DHT22;2548;52.050;11.036;2022-08-01T03:25:03;18.90;99.90
5059;DHT22;2548;52.050;11.036;2022-08-01T03:27:33;18.90;99.90
5059;DHT22;2548;52.050;11.036;2022-08-01T03:30:04;18.90;99.90
5059;DHT22;2548;52.050;11.036;2022-08-01T03:32:33;18.90;99.90
5059;DHT22;2548;52.050;11.036;2022-08-01T03:35:01;19.00;99.90
5059;DHT22;2548;52.050;11.036;2022-08-01T03:37:34;19.00;99.90
5059;DHT22;2548;52.050;11.036;2022-08-01T03:40:07;19.00;99.90
5059;DHT22;2548;52.050;11.036;2022-08-01T03:42:39;19.00;99.90
5059;DHT22;2548;52.050;11.036;2022-08-01T03:45:11;19.00;99.90
5059;DHT22;2548;52.050;11.036;2022-08-01T03:47:43;19.00;99.90
5059;DHT22;2548;52.050;11.036;2022-08-01T03:50:13;19.00;99.90
5059;DHT22;2548;52.050;11.036;2022-08-01T03:52:45;19.00;99.90
5059;DHT22;2548;52.050;11.036;2022-08-01T03:55:15;19.00;99.90
5059;DHT22;2548;52.050;11.036;2022-08-01T03:57:44;19.00;99.90
5059;DHT22;2548;52.050;11.036;2022-08-01T04:00:13;19.00;99.90
5059;DHT22;2548;52.050;11.036;2022-08-01T04:02:45;19.00;99.90
5059;DHT22;2548;52.050;11.036;2022-08-01T04:05:13;18.90;99.90
5059;DHT22;2548;52.050;11.036;2022-08-01T04:07:47;18.90;99.90
5059;DHT22;2548;52.050;11.036;2022-08-01T04:10:21;19.00;99.90
5059;DHT22;2548;52.050;11.036;2022-08-01T04:12:48;19.00;99.90
5059;DHT22;2548;52.050;11.036;2022-08-01T04:15:16;19.00;99.90
5059;DHT22;2548;52.050;11.036;2022-08-01T04:17:43;19.00;99.90
5059;DHT22;2548;52.050;11.036;2022-08-01T04:20:11;19.00;99.90
5059;DHT22;2548;52.050;11.036;2022-08-01T04:22:39;19.00;99.90
5059;DHT22;2548;52.050;11.036;2022-08-01T04:25:12;19.00;99.90
5059;DHT22;2548;52.050;11.036;2022-08-01T04:27:45;19.10;99.90
5059;DHT22;2548;52.050;11.036;2022-08-01T04:30:14;19.10;99.90
5059;DHT22;2548;52.050;11.036;2022-08-01T04:32:43;19.10;99.90
5059;DHT22;2548;52.050;11.036;2022-08-01T04:35:14;19.10;99.90
5059;DHT22;2548;52.050;11.036;2022-08-01T04:37:44;19.10;99.90
5059;DHT22;2548;52.050;11.036;2022-08-01T04:40:14;19.00;99.90
5059;DHT22;2548;52.050;11.036;2022-08-01T04:42:43;19.00;99.90
5059;DHT22;2548;52.050;11.036;2022-08-01T04:45:10;19.00;99.90
5059;DHT22;2548;52.050;11.036;2022-08-01T04:47:39;19.00;99.90
5059;DHT22;2548;52.050;11.036;2022-08-01T04:50:09;19.00;99.90
5059;DHT22;2548;52.050;11.036;2022-08-01T04:52:37;19.00;99.90
5059;DHT22;2548;52.050;11.036;2022-08-01T04:55:08;18.90;99.90
5059;DHT22;2548;52.050;11.036;2022-08-01T04:57:39;18.90;99.90
5059;DHT22;2548;52.050;11.036;2022-08-01T05:00:08;18.90;99.90
5059;DHT22;2548;52.050;11.036;2022-08-01T05:02:36;18.90;99.90
5059;DHT22;2548;52.050;11.036;2022-08-01T05:05:05;18.90;99.90
5059;DHT22;2548;52.050;11.036;2022-08-01T05:07:32;18.90;99.90
5059;DHT22;2548;52.050;11.036;2022-08-01T05:10:02;18.90;99.90
5059;DHT22;2548;52.050;11.036;2022-08-01T05:12:30;18.90;99.90
5059;DHT22;2548;52.050;11.036;2022-08-01T05:14:59;18.90;99.90
5059;DHT22;2548;52.050;11.036;2022-08-01T05:17:27;19.00;99.90
5059;DHT22;2548;52.050;11.036;2022-08-01T05:19:55;19.00;99.90
5059;DHT22;2548;52.050;11.036;2022-08-01T05:22:22;19.00;99.90
5059;DHT22;2548;52.050;11.036;2022-08-01T05:24:51;19.00;99.90
5059;DHT22;2548;52.050;11.036;2022-08-01T05:27:19;19.10;99.90
5059;DHT22;2548;52.050;11.036;2022-08-01T05:29:47;19.10;99.90
5059;DHT22;2548;52.050;11.036;2022-08-01T05:32:15;19.20;99.90
5059;DHT22;2548;52.050;11.036;2022-08-01T05:34:43;19.20;99.90
5059;DHT22;2548;52.050;11.036;2022-08-01T05:37:10;19.20;99.90
5059;DHT22;2548;52.050;11.036;2022-08-01T05:39:38;19.30;99.90
5059;DHT22;2548;52.050;11.036;2022-08-01T05:42:05;19.30;99.90
5059;DHT22;2548;52.050;11.036;2022-08-01T05:44:33;19.40;99.90
5059;DHT22;2548;52.050;11.036;2022-08-01T05:47:00;19.50;99.90
5059;DHT22;2548;52.050;11.036;2022-08-01T05:49:30;19.60;99.90
5059;DHT22;2548;52.050;11.036;2022-08-01T05:51:57;19.60;99.90
5059;DHT22;2548;52.050;11.036;2022-08-01T05:54:27;19.70;99.90
5059;DHT22;2548;52.050;11.036;2022-08-01T05:56:54;19.80;99.90
5059;DHT22;2548;52.050;11.036;2022-08-01T05:59:25;19.70;99.90
5059;DHT22;2548;52.050;11.036;2022-08-01T06:01:53;19.70;99.90
5059;DHT22;2548;52.050;11.036;2022-08-01T06:04:20;19.60;99.90
5059;DHT22;2548;52.050;11.036;2022-08-01T06:06:49;19.50;99.90
5059;DHT22;2548;52.050;11.036;2022-08-01T06:09:17;19.50;99.90
5059;DHT22;2548;52.050;11.036;2022-08-01T06:11:44;19.40;99.90
5059;DHT22;2548;52.050;11.036;2022-08-01T06:14:12;19.40;99.90
5059;DHT22;2548;52.050;11.036;2022-08-01T06:16:39;19.40;99.90
5059;DHT22;2548;52.050;11.036;2022-08-01T06:19:07;19.40;99.90
5059;DHT22;2548;52.050;11.036;2022-08-01T06:21:34;19.40;99.90
5059;DHT22;2548;52.050;11.036;2022-08-01T06:24:04;19.40;99.90
5059;DHT22;2548;52.050;11.036;2022-08-01T06:26:31;19.40;99.90
5059;DHT22;2548;52.050;11.036;2022-08-01T06:28:59;19.40;99.90
5059;DHT22;2548;52.050;11.036;2022-08-01T06:31:26;19.40;99.90
5059;DHT22;2548;52.050;11.036;2022-08-01T06:33:53;19.40;99.90
5059;DHT22;2548;52.050;11.036;2022-08-01T06:36:23;19.40;99.90
5059;DHT22;2548;52.050;11.036;2022-08-01T06:38:51;19.40;99.90
5059;DHT22;2548;52.050;11.036;2022-08-01T06:41:20;19.40;99.90
5059;DHT22;2548;52.050;11.036;2022-08-01T06:43:47;19.50;99.90
5059;DHT22;2548;52.050;11.036;2022-08-01T06:46:15;19.60;99.90
5059;DHT22;2548;52.050;11.036;2022-08-01T06:48:42;19.70;99.90
5059;DHT22;2548;52.050;11.036;2022-08-01T06:51:10;19.90;99.90
5059;DHT22;2548;52.050;11.036;2022-08-01T06:53:39;20.00;99.90
5059;DHT22;2548;52.050;11.036;2022-08-01T06:56:07;20.10;99.90
5059;DHT22;2548;52.050;11.036;2022-08-01T06:58:37;20.20;99.90
5059;DHT22;2548;52.050;11.036;2022-08-01T07:01:05;20.20;99.90
5059;DHT22;2548;52.050;11.036;2022-08-01T07:03:33;20.10;99.90
5059;DHT22;2548;52.050;11.036;2022-08-01T07:06:00;20.00;99.90
5059;DHT22;2548;52.050;11.036;2022-08-01T07:08:28;20.00;99.90
5059;DHT22;2548;52.050;11.036;2022-08-01T07:10:56;19.90;99.90
5059;DHT22;2548;52.050;11.036;2022-08-01T07:13:25;19.90;99.90
5059;DHT22;2548;52.050;11.036;2022-08-01T07:15:54;19.80;99.90
5059;DHT22;2548;52.050;11.036;2022-08-01T07:18:22;19.70;99.90
5059;DHT22;2548;52.050;11.036;2022-08-01T07:20:49;19.70;99.90
5059;DHT22;2548;52.050;11.036;2022-08-01T07:23:17;19.70;99.90
5059;DHT22;2548;52.050;11.036;2022-08-01T07:25:44;19.80;99.90
5059;DHT22;2548;52.050;11.036;2022-08-01T07:28:11;19.90;99.90
5059;DHT22;2548;52.050;11.036;2022-08-01T07:30:39;20.00;99.90
5059;DHT22;2548;52.050;11.036;2022-08-01T07:33:09;20.10;99.90
5059;DHT22;2548;52.050;11.036;2022-08-01T07:35:37;20.20;99.90
5059;DHT22;2548;52.050;11.036;2022-08-01T07:38:05;20.30;99.90
5059;DHT22;2548;52.050;11.036;2022-08-01T07:40:33;20.40;99.90
5059;DHT22;2548;52.050;11.036;2022-08-01T07:43:00;20.50;99.90
5059;DHT22;2548;52.050;11.036;2022-08-01T07:45:28;20.60;99.90
5059;DHT22;2548;52.050;11.036;2022-08-01T07:47:55;20.70;99.90
5059;DHT22;2548;52.050;11.036;2022-08-01T07:50:24;20.80;99.90
5059;DHT22;2548;52.050;11.036;2022-08-01T07:52:51;20.70;99.90
5059;DHT22;2548;52.050;11.036;2022-08-01T07:55:19;20.80;99.90
5059;DHT22;2548;52.050;11.036;2022-08-01T07:57:46;20.80;99.90
5059;DHT22;2548;52.050;11.036;2022-08-01T08:00:14;20.90;99.90
5059;DHT22;2548;52.050;11.036;2022-08-01T08:02:42;21.00;99.90
5059;DHT22;2548;52.050;11.036;2022-08-01T08:05:10;21.00;99.90
5059;DHT22;2548;52.050;11.036;2022-08-01T08:07:39;21.00;99.90
5059;DHT22;2548;52.050;11.036;2022-08-01T08:10:07;21.00;99.90
5059;DHT22;2548;52.050;11.036;2022-08-01T08:12:35;21.10;99.90
5059;DHT22;2548;52.050;11.036;2022-08-01T08:15:02;21.00;99.90
5059;DHT22;2548;52.050;11.036;2022-08-01T08:17:31;21.00;99.90
5059;DHT22;2548;52.050;11.036;2022-08-01T08:19:59;20.90;99.90
5059;DHT22;2548;52.050;11.036;2022-08-01T08:22:28;20.80;99.90
5059;DHT22;2548;52.050;11.036;2022-08-01T08:24:56;20.80;99.90
5059;DHT22;2548;52.050;11.036;2022-08-01T08:27:24;20.90;99.90
5059;DHT22;2548;52.050;11.036;2022-08-01T08:29:51;21.00;99.90
5059;DHT22;2548;52.050;11.036;2022-08-01T08:32:18;21.00;99.90
5059;DHT22;2548;52.050;11.036;2022-08-01T08:34:46;21.00;99.90
5059;DHT22;2548;52.050;11.036;2022-08-01T08:37:14;21.00;99.90
5059;DHT22;2548;52.050;11.036;2022-08-01T08:39:43;21.10;99.90
5059;DHT22;2548;52.050;11.036;2022-08-01T08:42:12;21.20;99.90
5059;DHT22;2548;52.050;11.036;2022-08-01T08:44:40;21.10;99.90
5059;DHT22;2548;52.050;11.036;2022-08-01T08:47:13;21.00;99.90
5059;DHT22;2548;52.050;11.036;2022-08-01T08:49:43;21.00;99.90
5059;DHT22;2548;52.050;11.036;2022-08-01T08:52:11;21.20;99.90
5059;DHT22;2548;52.050;11.036;2022-08-01T08:54:41;21.30;99.90
5059;DHT22;2548;52.050;11.036;2022-08-01T08:57:09;21.40;99.90
5059;DHT22;2548;52.050;11.036;2022-08-01T08:59:39;21.50;99.90
5059;DHT22;2548;52.050;11.036;2022-08-01T09:02:07;21.50;99.90
5059;DHT22;2548;52.050;11.036;2022-08-01T09:04:36;21.60;99.90
5059;DHT22;2548;52.050;11.036;2022-08-01T09:07:05;21.60;99.90
5059;DHT22;2548;52.050;11.036;2022-08-01T09:09:34;21.60;99.90
5059;DHT22;2548;52.050;11.036;2022-08-01T09:12:01;21.70;99.90
5059;DHT22;2548;52.050;11.036;2022-08-01T09:14:29;21.80;99.90
5059;DHT22;2548;52.050;11.036;2022-08-01T09:17:03;21.90;99.90
5059;DHT22;2548;52.050;11.036;2022-08-01T09:19:36;22.00;99.90
5059;DHT22;2548;52.050;11.036;2022-08-01T09:22:06;22.10;99.90
5059;DHT22;2548;52.050;11.036;2022-08-01T09:24:35;22.10;99.90
5059;DHT22;2548;52.050;11.036;2022-08-01T09:27:16;22.10;99.90
5059;DHT22;2548;52.050;11.036;2022-08-01T09:29:44;22.10;99.90
5059;DHT22;2548;52.050;11.036;2022-08-01T09:32:13;22.10;99.90
5059;DHT22;2548;52.050;11.036;2022-08-01T09:34:40;22.00;99.90
5059;DHT22;2548;52.050;11.036;2022-08-01T09:37:08;22.10;99.90
5059;DHT22;2548;52.050;11.036;2022-08-01T09:39:38;22.10;99.90
5059;DHT22;2548;52.050;11.036;2022-08-01T09:42:22;22.00;99.90
5059;DHT22;2548;52.050;11.036;2022-08-01T09:44:50;22.00;99.90
5059;DHT22;2548;52.050;11.036;2022-08-01T09:47:20;21.90;99.90
5059;DHT22;2548;52.050;11.036;2022-08-01T09:49:54;22.10;99.90
5059;DHT22;2548;52.050;11.036;2022-08-01T09:52:24;22.50;99.90
5059;DHT22;2548;52.050;11.036;2022-08-01T09:54:53;22.90;99.90
5059;DHT22;2548;52.050;11.036;2022-08-01T09:57:22;23.00;99.90
5059;DHT22;2548;52.050;11.036;2022-08-01T09:59:51;22.90;99.90
5059;DHT22;2548;52.050;11.036;2022-08-01T10:02:31;22.90;99.90
5059;DHT22;2548;52.050;11.036;2022-08-01T10:05:00;22.90;99.90
5059;DHT22;2548;52.050;11.036;2022-08-01T10:07:27;22.90;99.90
5059;DHT22;2548;52.050;11.036;2022-08-01T10:09:55;22.80;99.90
5059;DHT22;2548;52.050;11.036;2022-08-01T10:12:23;22.90;99.90
5059;DHT22;2548;52.050;11.036;2022-08-01T10:14:51;22.80;99.90
5059;DHT22;2548;52.050;11.036;2022-08-01T10:17:25;22.80;99.90
5059;DHT22;2548;52.050;11.036;2022-08-01T10:19:54;22.90;99.90
5059;DHT22;2548;52.050;11.036;2022-08-01T10:22:23;22.80;99.90
5059;DHT22;2548;52.050;11.036;2022-08-01T10:24:55;22.60;99.90
5059;DHT22;2548;52.050;11.036;2022-08-01T10:27:23;22.40;99.90
5059;DHT22;2548;52.050;11.036;2022-08-01T10:29:56;22.20;99.90
5059;DHT22;2548;52.050;11.036;2022-08-01T10:32:26;21.90;99.90
5059;DHT22;2548;52.050;11.036;2022-08-01T10:34:56;21.80;99.90
5059;DHT22;2548;52.050;11.036;2022-08-01T10:37:24;21.80;99.90
5059;DHT22;2548;52.050;11.036;2022-08-01T10:39:53;21.80;99.90
5059;DHT22;2548;52.050;11.036;2022-08-01T10:42:21;21.90;99.90
5059;DHT22;2548;52.050;11.036;2022-08-01T10:44:49;21.90;99.90
5059;DHT22;2548;52.050;11.036;2022-08-01T10:47:23;21.90;99.90
5059;DHT22;2548;52.050;11.036;2022-08-01T10:50:00;21.90;99.90
5059;DHT22;2548;52.050;11.036;2022-08-01T10:52:29;22.00;99.90
5059;DHT22;2548;52.050;11.036;2022-08-01T10:55:02;22.10;99.90
5059;DHT22;2548;52.050;11.036;2022-08-01T10:57:42;22.20;99.90
5059;DHT22;2548;52.050;11.036;2022-08-01T11:00:16;22.30;99.90
5059;DHT22;2548;52.050;11.036;2022-08-01T11:02:57;22.30;99.90
5059;DHT22;2548;52.050;11.036;2022-08-01T11:05:31;22.40;99.90
5059;DHT22;2548;52.050;11.036;2022-08-01T11:08:03;22.60;99.90
5059;DHT22;2548;52.050;11.036;2022-08-01T11:10:37;22.90;99.90
5059;DHT22;2548;52.050;11.036;2022-08-01T11:13:05;23.00;99.90
5059;DHT22;2548;52.050;11.036;2022-08-01T11:15:34;23.10;99.90
5059;DHT22;2548;52.050;11.036;2022-08-01T11:18:03;23.20;99.90
5059;DHT22;2548;52.050;11.036;2022-08-01T11:20:34;23.20;99.90
5059;DHT22;2548;52.050;11.036;2022-08-01T11:23:23;23.20;99.90
5059;DHT22;2548;52.050;11.036;2022-08-01T11:26:20;23.20;99.90
5059;DHT22;2548;52.050;11.036;2022-08-01T11:29:16;23.50;99.90
5059;DHT22;2548;52.050;11.036;2022-08-01T11:31:44;23.60;99.90
5059;DHT22;2548;52.050;11.036;2022-08-01T11:34:12;23.50;99.90
5059;DHT22;2548;52.050;11.036;2022-08-01T11:36:41;23.50;99.90
5059;DHT22;2548;52.050;11.036;2022-08-01T11:39:14;23.30;99.90
5059;DHT22;2548;52.050;11.036;2022-08-01T11:41:43;23.10;99.90
5059;DHT22;2548;52.050;11.036;2022-08-01T11:44:13;23.00;99.90
5059;DHT22;2548;52.050;11.036;2022-08-01T11:46:56;23.20;99.90
5059;DHT22;2548;52.050;11.036;2022-08-01T11:49:27;23.40;99.90
5059;DHT22;2548;52.050;11.036;2022-08-01T11:52:05;23.50;99.90
5059;DHT22;2548;52.050;11.036;2022-08-01T11:54:34;23.40;99.90
5059;DHT22;2548;52.050;11.036;2022-08-01T11:57:05;23.40;99.90
5059;DHT22;2548;52.050;11.036;2022-08-01T11:59:41;23.40;99.90
5059;DHT22;2548;52.050;11.036;2022-08-01T12:02:20;23.40;99.90
5059;DHT22;2548;52.050;11.036;2022-08-01T12:04:53;23.40;99.90
5059;DHT22;2548;52.050;11.036;2022-08-01T12:07:23;23.40;99.90
5059;DHT22;2548;52.050;11.036;2022-08-01T12:10:01;23.40;99.90
5059;DHT22;2548;52.050;11.036;2022-08-01T12:12:30;23.30;99.90
5059;DHT22;2548;52.050;11.036;2022-08-01T12:14:58;23.30;99.90
5059;DHT22;2548;52.050;11.036;2022-08-01T12:17:32;23.50;99.90
5059;DHT22;2548;52.050;11.036;2022-08-01T12:20:00;23.60;99.90
5059;DHT22;2548;52.050;11.036;2022-08-01T12:22:29;23.90;99.90
5059;DHT22;2548;52.050;11.036;2022-08-01T12:25:05;23.90;99.90
5059;DHT22;2548;52.050;11.036;2022-08-01T12:27:34;23.90;99.90
5059;DHT22;2548;52.050;11.036;2022-08-01T12:30:04;23.80;99.90
5059;DHT22;2548;52.050;11.036;2022-08-01T12:32:34;23.80;99.90
5059;DHT22;2548;52.050;11.036;2022-08-01T12:35:04;23.60;99.90
5059;DHT22;2548;52.050;11.036;2022-08-01T12:37:36;23.60;99.90
5059;DHT22;2548;52.050;11.036;2022-08-01T12:40:12;23.80;99.90
5059;DHT22;2548;52.050;11.036;2022-08-01T12:42:42;23.90;99.90
5059;DHT22;2548;52.050;11.036;2022-08-01T12:45:12;24.10;99.90
5059;DHT22;2548;52.050;11.036;2022-08-01T12:47:40;24.00;99.90
5059;DHT22;2548;52.050;11.036;2022-08-01T12:50:11;24.00;99.90
5059;DHT22;2548;52.050;11.036;2022-08-01T12:52:41;24.10;99.90
5059;DHT22;2548;52.050;11.036;2022-08-01T12:55:11;24.20;99.90
5059;DHT22;2548;52.050;11.036;2022-08-01T12:57:41;24.20;99.90
5059;DHT22;2548;52.050;11.036;2022-08-01T13:00:21;24.50;99.90
5059;DHT22;2548;52.050;11.036;2022-08-01T13:03:00;24.80;99.90
5059;DHT22;2548;52.050;11.036;2022-08-01T13:05:41;25.30;99.90
5059;DHT22;2548;52.050;11.036;2022-08-01T13:08:11;25.50;99.90
5059;DHT22;2548;52.050;11.036;2022-08-01T13:10:40;25.50;99.90
5059;DHT22;2548;52.050;11.036;2022-08-01T13:13:08;25.50;99.90
5059;DHT22;2548;52.050;11.036;2022-08-01T13:15:37;25.30;99.90
5059;DHT22;2548;52.050;11.036;2022-08-01T13:18:24;25.00;99.90
5059;DHT22;2548;52.050;11.036;2022-08-01T13:21:08;25.00;99.90
5059;DHT22;2548;52.050;11.036;2022-08-01T13:23:38;24.90;99.90
5059;DHT22;2548;52.050;11.036;2022-08-01T13:26:06;24.90;99.90
5059;DHT22;2548;52.050;11.036;2022-08-01T13:28:34;24.90;99.90
5059;DHT22;2548;52.050;11.036;2022-08-01T13:31:04;24.70;99.90
5059;DHT22;2548;52.050;11.036;2022-08-01T13:33:43;24.40;99.90
5059;DHT22;2548;52.050;11.036;2022-08-01T13:36:11;24.30;99.90
5059;DHT22;2548;52.050;11.036;2022-08-01T13:38:41;24.20;99.90
5059;DHT22;2548;52.050;11.036;2022-08-01T13:41:26;24.10;99.90
5059;DHT22;2548;52.050;11.036;2022-08-01T13:43:54;23.90;99.90
5059;DHT22;2548;52.050;11.036;2022-08-01T13:46:22;24.00;99.90
5059;DHT22;2548;52.050;11.036;2022-08-01T13:48:49;24.00;99.90
5059;DHT22;2548;52.050;11.036;2022-08-01T13:51:17;24.00;99.90
5059;DHT22;2548;52.050;11.036;2022-08-01T13:53:46;23.80;99.90
5059;DHT22;2548;52.050;11.036;2022-08-01T13:56:14;23.90;99.90
5059;DHT22;2548;52.050;11.036;2022-08-01T13:58:42;23.90;99.90
5059;DHT22;2548;52.050;11.036;2022-08-01T14:01:10;24.20;99.90
5059;DHT22;2548;52.050;11.036;2022-08-01T14:03:38;24.40;99.90
5059;DHT22;2548;52.050;11.036;2022-08-01T14:06:05;24.60;99.90
5059;DHT22;2548;52.050;11.036;2022-08-01T14:08:33;24.80;99.90
5059;DHT22;2548;52.050;11.036;2022-08-01T14:11:02;24.70;99.90
5059;DHT22;2548;52.050;11.036;2022-08-01T14:13:30;24.60;99.90
5059;DHT22;2548;52.050;11.036;2022-08-01T14:15:59;24.40;99.90
5059;DHT22;2548;52.050;11.036;2022-08-01T14:18:27;24.60;99.90
5059;DHT22;2548;52.050;11.036;2022-08-01T14:20:54;24.60;99.90
5059;DHT22;2548;52.050;11.036;2022-08-01T14:23:22;24.50;99.90
5059;DHT22;2548;52.050;11.036;2022-08-01T14:25:50;24.70;99.90
5059;DHT22;2548;52.050;11.036;2022-08-01T14:28:19;24.60;99.90
5059;DHT22;2548;52.050;11.036;2022-08-01T14:30:47;24.70;99.90
5059;DHT22;2548;52.050;11.036;2022-08-01T14:33:15;24.90;99.90
5059;DHT22;2548;52.050;11.036;2022-08-01T14:35:43;25.00;99.90
5059;DHT22;2548;52.050;11.036;2022-08-01T14:38:10;24.90;99.90
5059;DHT22;2548;52.050;11.036;2022-08-01T14:40:38;25.00;99.90
5059;DHT22;2548;52.050;11.036;2022-08-01T14:43:06;24.60;99.90
5059;DHT22;2548;52.050;11.036;2022-08-01T14:45:35;24.60;99.90
5059;DHT22;2548;52.050;11.036;2022-08-01T14:48:04;24.60;99.90
5059;DHT22;2548;52.050;11.036;2022-08-01T14:50:31;24.80;99.90
5059;DHT22;2548;52.050;11.036;2022-08-01T14:52:59;24.70;99.90
5059;DHT22;2548;52.050;11.036;2022-08-01T14:55:26;24.70;99.90
5059;DHT22;2548;52.050;11.036;2022-08-01T14:57:54;24.80;99.90
5059;DHT22;2548;52.050;11.036;2022-08-01T15:00:22;24.90;99.90
5059;DHT22;2548;52.050;11.036;2022-08-01T15:02:51;25.00;99.90
5059;DHT22;2548;52.050;11.036;2022-08-01T15:05:18;24.90;99.90
5059;DHT22;2548;52.050;11.036;2022-08-01T15:07:46;24.80;99.90
5059;DHT22;2548;52.050;11.036;2022-08-01T15:10:14;25.00;99.90
5059;DHT22;2548;52.050;11.036;2022-08-01T15:12:42;25.00;99.90
5059;DHT22;2548;52.050;11.036;2022-08-01T15:15:10;24.80;99.90
5059;DHT22;2548;52.050;11.036;2022-08-01T15:17:38;24.50;99.90
5059;DHT22;2548;52.050;11.036;2022-08-01T15:20:08;24.50;99.90
5059;DHT22;2548;52.050;11.036;2022-08-01T15:22:35;24.70;99.90
5059;DHT22;2548;52.050;11.036;2022-08-01T15:25:03;24.90;99.90
5059;DHT22;2548;52.050;11.036;2022-08-01T15:27:31;25.20;99.90
5059;DHT22;2548;52.050;11.036;2022-08-01T15:29:59;25.00;99.90
5059;DHT22;2548;52.050;11.036;2022-08-01T15:32:26;24.90;99.90
5059;DHT22;2548;52.050;11.036;2022-08-01T15:34:54;24.70;99.90
5059;DHT22;2548;52.050;11.036;2022-08-01T15:37:23;24.80;99.90
5059;DHT22;2548;52.050;11.036;2022-08-01T15:39:51;25.00;99.90
5059;DHT22;2548;52.050;11.036;2022-08-01T15:42:18;25.20;99.90
5059;DHT22;2548;52.050;11.036;2022-08-01T15:44:46;25.20;99.90
5059;DHT22;2548;52.050;11.036;2022-08-01T15:47:14;25.00;99.90
5059;DHT22;2548;52.050;11.036;2022-08-01T15:49:41;24.80;99.90
5059;DHT22;2548;52.050;11.036;2022-08-01T15:52:09;24.60;99.90
5059;DHT22;2548;52.050;11.036;2022-08-01T15:54:38;24.90;99.90
5059;DHT22;2548;52.050;11.036;2022-08-01T15:57:06;24.90;99.90
5059;DHT22;2548;52.050;11.036;2022-08-01T15:59:35;25.00;99.90
5059;DHT22;2548;52.050;11.036;2022-08-01T16:02:03;25.20;99.90